Terminal Aerodrome Forecast
Issued by NWS Melbourne, FL

Home | Current Version | Previous Version | Text Only | Print | Product List | Glossary On
Versions: 1 2 3 4 5 6 7 8 9 10 11 12 13 14 15 16 17 18 19
000
FTUS42 KMLB 211120
TAFMLB
TAF
KMLB 211120Z 2112/2212 26004KT P6SM SCT035 BKN150 OVC250
     FM211400 27005KT P6SM SCT015 BKN150
     FM211800 06008KT P6SM SCT030 BKN050
     FM220000 07007KT P6SM SCT030 BKN150
     FM220600 03003KT P6SM FEW030 BKN120=

USA.gov is the U.S. government's official web portal to all federal, state and local government web resources and services.